地図

経路データ

SID SEASON NUMBER BASIN SUBBASIN NAME ISO_TIME NATURE LAT LON WMO_WIND WMO_PRES WMO_AGENCY TRACK_TYPE DIST2LAND LANDFALL IFLAG USA_AGENCY USA_ATCF_ID USA_LAT USA_LON USA_RECORD USA_STATUS USA_WIND USA_PRES USA_SSHS USA_R34_NE USA_R34_SE USA_R34_SW USA_R34_NW USA_R50_NE USA_R50_SE USA_R50_SW USA_R50_NW USA_R64_NE USA_R64_SE USA_R64_SW USA_R64_NW USA_POCI USA_ROCI USA_RMW USA_EYE TOKYO_LAT TOKYO_LON TOKYO_GRADE TOKYO_WIND TOKYO_PRES TOKYO_R50_DIR TOKYO_R50_LONG TOKYO_R50_SHORT TOKYO_R30_DIR TOKYO_R30_LONG TOKYO_R30_SHORT TOKYO_LAND CMA_LAT CMA_LON CMA_CAT CMA_WIND CMA_PRES HKO_LAT HKO_LON HKO_CAT HKO_WIND HKO_PRES NEWDELHI_LAT NEWDELHI_LON NEWDELHI_GRADE NEWDELHI_WIND NEWDELHI_PRES NEWDELHI_CI NEWDELHI_DP NEWDELHI_POCI REUNION_LAT REUNION_LON REUNION_TYPE REUNION_WIND REUNION_PRES REUNION_TNUM REUNION_CI REUNION_RMW REUNION_R34_NE REUNION_R34_SE REUNION_R34_SW REUNION_R34_NW REUNION_R50_NE REUNION_R50_SE REUNION_R50_SW REUNION_R50_NW REUNION_R64_NE REUNION_R64_SE REUNION_R64_SW REUNION_R64_NW BOM_LAT BOM_LON BOM_TYPE BOM_WIND BOM_PRES BOM_TNUM BOM_CI BOM_RMW BOM_R34_NE BOM_R34_SE BOM_R34_SW BOM_R34_NW BOM_R50_NE BOM_R50_SE BOM_R50_SW BOM_R50_NW BOM_R64_NE BOM_R64_SE BOM_R64_SW BOM_R64_NW BOM_ROCI BOM_POCI BOM_EYE BOM_POS_METHOD BOM_PRES_METHOD NADI_LAT NADI_LON NADI_CAT NADI_WIND NADI_PRES WELLINGTON_LAT WELLINGTON_LON WELLINGTON_WIND WELLINGTON_PRES DS824_LAT DS824_LON DS824_STAGE DS824_WIND DS824_PRES TD9636_LAT TD9636_LON TD9636_STAGE TD9636_WIND TD9636_PRES TD9635_LAT TD9635_LON TD9635_WIND TD9635_PRES TD9635_ROCI NEUMANN_LAT NEUMANN_LON NEUMANN_CLASS NEUMANN_WIND NEUMANN_PRES MLC_LAT MLC_LON MLC_CLASS MLC_WIND MLC_PRES USA_GUST BOM_GUST BOM_GUST_PER REUNION_GUST REUNION_GUST_PER USA_SEAHGT USA_SEARAD_NE USA_SEARAD_SE USA_SEARAD_SW USA_SEARAD_NW STORM_SPEED STORM_DIR
1934256N06142 1934 53 WP MM NOT_NAMED 1934-09-12 21:00:00 NR 5.90000 142.000 main 937 937 __________O___ -1 5.90000 142.000 2 8 17
1934256N06142 1934 53 WP MM NOT_NAMED 1934-09-13 00:00:00 NR 6.30473 142.117 main 983 983 __________P___ -1 6.30473 142.117 2 9 13
1934256N06142 1934 53 WP MM NOT_NAMED 1934-09-13 03:00:00 NR 6.72752 142.197 main 1028 1028 __________P___ -1 6.72752 142.197 2 9 6
1934256N06142 1934 53 WP MM NOT_NAMED 1934-09-13 06:00:00 NR 7.18655 142.203 main 1080 1080 __________P___ -1 7.18655 142.203 2 10 354
1934256N06142 1934 53 WP MM NOT_NAMED 1934-09-13 09:00:00 NR 7.70000 142.100 main 1128 1128 __________O___ -1 7.70000 142.100 2 11 343
1934256N06142 1934 53 WP MM NOT_NAMED 1934-09-13 12:00:00 NR 8.27572 141.863 main 1182 1179 __________P___ -1 8.27572 141.863 2 13 334
1934256N06142 1934 53 WP MM NOT_NAMED 1934-09-13 15:00:00 NR 8.88019 141.521 main 1232 1232 __________P___ -1 8.88019 141.521 2 14 328
1934256N06142 1934 53 WP MM NOT_NAMED 1934-09-13 18:00:00 NR 9.46953 141.119 main 1284 1284 __________P___ -1 9.46953 141.119 2 14 324
1934256N06142 1934 53 WP MM NOT_NAMED 1934-09-13 21:00:00 NR 10.0000 140.700 main 1321 1321 __________O___ -1 10.0000 140.700 2 12 317
1934256N06142 1934 53 WP MM NOT_NAMED 1934-09-14 00:00:00 NR 10.3621 140.283 main 1346 1342 __________P___ -1 10.3621 140.283 2 11 309
1934256N06142 1934 53 WP MM NOT_NAMED 1934-09-14 03:00:00 NR 10.6704 139.867 main 1362 1358 __________P___ -1 10.6704 139.867 2 10 309
1934256N06142 1934 53 WP MM NOT_NAMED 1934-09-14 06:00:00 NR 10.9934 139.493 main 1380 1376 __________P___ -1 10.9934 139.493 2 10 318
1934256N06142 1934 53 WP MM NOT_NAMED 1934-09-14 09:00:00 NR 11.4000 139.200 main 1412 1412 __________O___ -1 11.4000 139.200 2 13 337
1934256N06142 1934 53 WP MM NOT_NAMED 1934-09-14 12:00:00 NR 12.1396 139.002 main 1436 1436 __________P___ -1 12.1396 139.002 2 16 349
1934256N06142 1934 53 WP MM NOT_NAMED 1934-09-14 15:00:00 NR 12.9446 138.892 main 1441 1441 __________P___ -1 12.9446 138.892 2 15 355
1934256N06142 1934 53 WP MM NOT_NAMED 1934-09-14 18:00:00 NR 13.6523 138.861 main 1455 1455 __________P___ -1 13.6523 138.861 2 12 1
1934256N06142 1934 53 WP MM NOT_NAMED 1934-09-14 21:00:00 NR 14.1000 138.900 main 1464 1464 __________O___ -1 14.1000 138.900 2 4 37
1934256N06142 1934 53 WP MM NOT_NAMED 1934-09-15 00:00:00 NR 13.9825 139.116 main 1482 1482 __________P___ -1 13.9825 139.116 2 7 137
1934256N06142 1934 53 WP MM NOT_NAMED 1934-09-15 03:00:00 NR 13.6118 139.373 main 1506 1504 __________P___ -1 13.6118 139.373 2 9 153
1934256N06142 1934 53 WP MM NOT_NAMED 1934-09-15 06:00:00 NR 13.1852 139.543 main 1510 1506 __________P___ -1 13.1852 139.543 2 7 170
1934256N06142 1934 53 WP MM NOT_NAMED 1934-09-15 09:00:00 NR 12.9000 139.500 main 1506 1464 __________O___ -1 12.9000 139.500 2 5 253
1934256N06142 1934 53 WP MM NOT_NAMED 1934-09-15 12:00:00 NR 13.0410 139.057 main 1464 1394 __________P___ -1 13.0410 139.057 2 12 292
1934256N06142 1934 53 WP MM NOT_NAMED 1934-09-15 15:00:00 NR 13.3446 138.397 main 1394 1328 __________P___ -1 13.3446 138.397 2 15 296
1934256N06142 1934 53 WP MM NOT_NAMED 1934-09-15 18:00:00 NR 13.7256 137.638 main 1317 1253 __________P___ -1 13.7256 137.638 2 16 297
1934256N06142 1934 53 WP MM NOT_NAMED 1934-09-15 21:00:00 NR 14.1000 136.900 main 1253 1203 __________O___ -1 14.1000 136.900 2 14 296
1934256N06142 1934 53 WP MM NOT_NAMED 1934-09-16 00:00:00 NR 14.3416 136.360 main 1203 1154 __________P___ -1 14.3416 136.360 2 11 295
1934256N06142 1934 53 WP MM NOT_NAMED 1934-09-16 03:00:00 NR 14.5638 135.861 main 1157 1109 __________P___ -1 14.5638 135.861 2 10 295
1934256N06142 1934 53 WP MM NOT_NAMED 1934-09-16 06:00:00 NR 14.7792 135.382 main 1109 1063 __________P___ -1 14.7792 135.382 2 10 295
1934256N06142 1934 53 WP MM NOT_NAMED 1934-09-16 09:00:00 NR 15.0000 134.900 main 1063 1018 __________O___ -1 15.0000 134.900 2 11 294
1934256N06142 1934 53 WP MM NOT_NAMED 1934-09-16 12:00:00 NR 15.2312 134.317 main 1008 965 __________P___ -1 15.2312 134.317 2 12 293
1934256N06142 1934 53 WP MM NOT_NAMED 1934-09-16 15:00:00 NR 15.4708 133.738 main 959 918 __________P___ -1 15.4708 133.738 2 12 295
1934256N06142 1934 53 WP MM NOT_NAMED 1934-09-16 18:00:00 NR 15.7250 133.214 main 918 895 __________P___ -1 15.7250 133.214 2 10 300
1934256N06142 1934 53 WP MM NOT_NAMED 1934-09-16 21:00:00 NR 16.0000 132.800 main 895 881 __________O___ -1 16.0000 132.800 2 8 310
1934256N06142 1934 53 WP MM NOT_NAMED 1934-09-17 00:00:00 NR 16.2499 132.555 main 886 879 __________P___ -1 16.2499 132.555 2 6 326
1934256N06142 1934 53 WP MM NOT_NAMED 1934-09-17 03:00:00 NR 16.5292 132.421 main 885 885 __________P___ -1 16.5292 132.421 2 7 343
1934256N06142 1934 53 WP MM NOT_NAMED 1934-09-17 06:00:00 NR 16.8689 132.352 main 910 901 __________P___ -1 16.8689 132.352 2 8 351
1934256N06142 1934 53 WP MM NOT_NAMED 1934-09-17 09:00:00 NR 17.3000 132.300 main 927 927 __________O___ -1 17.3000 132.300 2 11 353
1934256N06142 1934 53 WP MM NOT_NAMED 1934-09-17 12:00:00 NR 17.9173 132.213 main 946 946 __________P___ -1 17.9173 132.213 2 13 353
1934256N06142 1934 53 WP MM NOT_NAMED 1934-09-17 15:00:00 NR 18.6148 132.130 main 975 975 __________P___ -1 18.6148 132.130 2 14 353
1934256N06142 1934 53 WP MM NOT_NAMED 1934-09-17 18:00:00 NR 19.3049 132.032 main 1010 1010 __________P___ -1 19.3049 132.032 2 13 350
1934256N06142 1934 53 WP MM NOT_NAMED 1934-09-17 21:00:00 NR 19.9000 131.900 main 1022 1008 __________O___ -1 19.9000 131.900 2 10 344
1934256N06142 1934 53 WP MM NOT_NAMED 1934-09-18 00:00:00 NR 20.2989 131.723 main 1008 995 __________P___ -1 20.2989 131.723 2 8 332
1934256N06142 1934 53 WP MM NOT_NAMED 1934-09-18 03:00:00 NR 20.5923 131.510 main 995 980 __________P___ -1 20.5923 131.510 2 7 320
1934256N06142 1934 53 WP MM NOT_NAMED 1934-09-18 06:00:00 NR 20.8145 131.267 main 980 955 __________P___ -1 20.8145 131.267 2 6 311
1934256N06142 1934 53 WP MM NOT_NAMED 1934-09-18 09:00:00 NR 21.0000 131.000 main 955 932 __________O___ -1 21.0000 131.000 2 6 304
1934256N06142 1934 53 WP MM NOT_NAMED 1934-09-18 12:00:00 NR 21.1714 130.709 main 932 906 __________P___ -1 21.1714 130.709 2 6 300
1934256N06142 1934 53 WP MM NOT_NAMED 1934-09-18 15:00:00 NR 21.3202 130.399 main 906 885 __________P___ -1 21.3202 130.399 2 7 299
1934256N06142 1934 53 WP MM NOT_NAMED 1934-09-18 18:00:00 NR 21.4839 130.090 main 885 865 __________P___ -1 21.4839 130.090 2 7 304
1934256N06142 1934 53 WP MM NOT_NAMED 1934-09-18 21:00:00 NR 21.7000 129.800 main 865 824 __________O___ -1 21.7000 129.800 2 7 312
1934256N06142 1934 53 WP MM NOT_NAMED 1934-09-19 00:00:00 NR 21.9688 129.517 main 824 793 __________P___ -1 21.9688 129.517 2 8 320
1934256N06142 1934 53 WP MM NOT_NAMED 1934-09-19 03:00:00 NR 22.3001 129.261 main 793 760 __________P___ -1 22.3001 129.261 2 9 330
1934256N06142 1934 53 WP MM NOT_NAMED 1934-09-19 06:00:00 NR 22.7064 129.049 main 750 726 __________P___ -1 22.7064 129.049 2 10 340
1934256N06142 1934 53 WP MM NOT_NAMED 1934-09-19 09:00:00 NR 23.2000 128.900 main 726 703 __________O___ -1 23.2000 128.900 4 11 346
1934256N06142 1934 53 WP MM NOT_NAMED 1934-09-19 12:00:00 NR 23.7719 128.761 main 701 679 __________P___ -1 23.7719 128.761 4 13 351
1934256N06142 1934 53 WP MM NOT_NAMED 1934-09-19 15:00:00 NR 24.4290 128.694 main 679 674 __________P___ -1 24.4290 128.694 4 14 0
1934256N06142 1934 53 WP MM NOT_NAMED 1934-09-19 18:00:00 NR 25.1466 128.731 main 674 595 __________P___ -1 25.1466 128.731 4 15 7
1934256N06142 1934 53 WP MM NOT_NAMED 1934-09-19 21:00:00 NR 25.9000 128.900 main 595 525 __________O___ -1 25.9000 128.900 4 15 15
1934256N06142 1934 53 WP MM NOT_NAMED 1934-09-20 00:00:00 NR 26.5719 129.160 main 512 439 __________P___ -1 26.5719 129.160 4 15 23
1934256N06142 1934 53 WP MM NOT_NAMED 1934-09-20 03:00:00 NR 27.2827 129.562 main 426 339 __________P___ -1 27.2827 129.562 4 17 29
1934256N06142 1934 53 WP MM NOT_NAMED 1934-09-20 06:00:00 NR 28.0771 130.108 main 328 234 __________P___ -1 28.0771 130.108 4 20 32
1934256N06142 1934 53 WP MM NOT_NAMED 1934-09-20 09:00:00 NR 29.0000 130.800 main 223 135 __________O___ -1 29.0000 130.800 4 24 33
1934256N06142 1934 53 WP MM NOT_NAMED 1934-09-20 12:00:00 NR 30.0977 131.630 main 132 96 __________P___ -1 30.0977 131.630 4 28 34
1934256N06142 1934 53 WP MM NOT_NAMED 1934-09-20 15:00:00 NR 31.3180 132.611 main 114 57 __________P___ -1 31.3180 132.611 4 31 35
1934256N06142 1934 53 WP MM NOT_NAMED 1934-09-20 18:00:00 NR 32.6037 133.687 main 66 0 __________P___ -1 32.6037 133.687 4 32 36
1934256N06142 1934 53 WP MM NOT_NAMED 1934-09-20 21:00:00 NR 33.9000 134.800 main 9 0 __________O___ -1 33.9000 134.800 4 30 32
1934256N06142 1934 53 WP MM NOT_NAMED 1934-09-21 00:00:00 NR 35.1702 135.639 main 0 0 __________P___ -1 35.1702 135.639 4 29 29
1934256N06142 1934 53 WP MM NOT_NAMED 1934-09-21 03:00:00 NR 36.4373 136.532 main 0 0 __________P___ -1 36.4373 136.532 4 30 33
1934256N06142 1934 53 WP MM NOT_NAMED 1934-09-21 06:00:00 NR 37.6625 137.657 main 55 36 __________P___ -1 37.6625 137.657 4 32 42
1934256N06142 1934 53 WP MM NOT_NAMED 1934-09-21 09:00:00 NR 38.8000 139.200 main 34 0 __________O___ -1 38.8000 139.200 2 36 53
1934256N06142 1934 53 WP MM NOT_NAMED 1934-09-21 12:00:00 NR 39.8039 141.305 main 0 0 __________P___ -1 39.8039 141.305 2 41 63
1934256N06142 1934 53 WP MM NOT_NAMED 1934-09-21 15:00:00 NR 40.6664 143.902 main 145 145 __________P___ -1 40.6664 143.902 2 45 69
1934256N06142 1934 53 WP MM NOT_NAMED 1934-09-21 18:00:00 NR 41.3932 146.851 main 230 230 __________P___ -1 41.3932 146.851 2 48 74
1934256N06142 1934 53 WP MM NOT_NAMED 1934-09-21 21:00:00 NR 42.0000 150.000 main 366 __________O___ -1 42.0000 150.000 2 48 75

デジタル台風データ・検索

IBTrACS Databaseについて

本データベースは、米国NOAAが公開する1842年以降の世界の熱帯低気圧のベストトラックデータアーカイブInternational Best Track Archive for Climate Stewardship (IBTrACS)を、ウェブで閲覧しやすい形式に変換したものです。

最終更新日:2021-12-03